Pendleton, OR

12:01 PM PDT on August 27, 2014 (GMT -0700)
Meacham | Change Station
CLOSE
Current Station
Airport
Location: Meacham,
Elevation: 3720 ft
Nearby Weather Stations

Elev 3720 ft 45.51 °N, 118.42 °W | Updated 5 minutes ago

Clear
Clear
82 °F
Feels Like 82 °F
N
5
Wind Variable Wind from Variable

Today
High -- | Low -- °F
--% Chance of Precip.
Yesterday
High -- | Low -- °F
Precip. -- in
6:10 AM 7:41 PM
Waxing Crescent, 4% visible
Pressure 30.08 in
Visibility 10.0 miles
Clouds Clear
Dew Point 44 °F
Humidity 26%
Rainfall 0.00 in
Snow Depth Not available.
UV 9 out of 12
Pollen 6.50 out of 12
Air Quality Not available.
Flu Activity Not available.
METAR KMEH 271856Z AUTO VRB04KT 10SM CLR 28/07 A3014 RMK AO2 SLP184 T02780067

More Conditions Fewer Conditions

Pressure 30.08 in
Visibility 10.0 miles
Clouds Clear
Dew Point 44 °F
Humidity 26%
Rainfall 0.00 in
Snow Depth Not available.
UV 9 out of 12
Pollen 6.50 out of 12
Air Quality Not available.
Flu Activity Not available.
METAR KMEH 271856Z AUTO VRB04KT 10SM CLR 28/07 A3014 RMK AO2 SLP184 T02780067

More Conditions Fewer Conditions

10-Day Weather Forecast

Almanac

Astronomy

Aug. 27, 2014 Rise Set
Actual Time 6:10 AM PDT 7:41 PM PDT
Civil Twilight 5:39 AM PDT 8:12 PM PDT
Nautical Twilight 5:01 AM PDT 8:50 PM PDT
Astronomical Twilight 4:20 AM PDT 9:30 PM PDT
Moon 8:19 AM PDT 8:27 PM PDT
Length of Visible Light 14h 33m
Length of Day
13h 31m
Tomorrow will be 3m 3s shorter.
Waxing Crescent, 4% of the Moon is Illuminated
Today
Waxing Crescent
Sep 2
First Quarter
Sep 8
Full
Sep 15
Last Quarter
Sep 24
New

Today's Extremes

State Highs State Lows

Community

WunderPhotos

Upload Photos

1,747,753 photos uploaded!

Nearby

Snow Depth

Station Depth Elevation
Bowman Springs 0 in 4580 ft
Lucky Strike 0 in 5050 ft
Arbuckle Mountain 0 in 5400 ft
Madison Butte 0 in 5250 ft
Bourne 0 in 5800 ft

Earthquake Activity

City Distance Mag. Time & Date
No recent earthquake activity has been reported nearby.
Minimum magnitude displayed is 2.5.

Coastal Water Temperatures

Place Temperature
No Stations Reporting

Nearby Weather Stations